createdAt,value
2017-11-10T00:02:03.125Z,83.90
2017-11-10T00:04:37.392Z,83.90
2017-11-10T00:07:11.333Z,84.00
2017-11-10T00:09:45.428Z,83.70
2017-11-10T00:12:19.410Z,83.70
2017-11-10T00:14:55.253Z,83.60
2017-11-10T00:17:29.699Z,83.50
2017-11-10T00:20:04.404Z,83.70
2017-11-10T00:22:39.139Z,83.70
2017-11-10T00:25:13.934Z,83.30
2017-11-10T00:27:48.073Z,83.30
2017-11-10T00:30:21.819Z,83.30
2017-11-10T00:32:56.334Z,83.30
2017-11-10T00:35:30.427Z,82.90
2017-11-10T00:38:04.460Z,83.30
2017-11-10T00:40:38.954Z,83.10
2017-11-10T00:43:13.321Z,83.00
2017-11-10T00:45:48.462Z,82.70
2017-11-10T00:48:22.559Z,82.10
2017-11-10T00:53:36.584Z,81.60
2017-11-10T00:56:10.908Z,81.60
2017-11-10T00:58:44.782Z,82.00
2017-11-10T01:01:19.338Z,82.00
2017-11-10T01:03:53.452Z,81.40
2017-11-10T01:06:27.114Z,81.40
2017-11-10T01:09:01.642Z,81.90
2017-11-10T01:11:35.683Z,81.40
2017-11-10T01:14:10.365Z,81.80
2017-11-10T01:16:44.697Z,81.30
2017-11-10T01:19:18.768Z,81.40
2017-11-10T01:21:52.956Z,81.10
2017-11-10T01:24:27.763Z,81.20
2017-11-10T01:27:02.979Z,81.80
2017-11-10T01:29:37.923Z,81.60
2017-11-10T01:32:12.003Z,81.10
2017-11-10T01:34:46.437Z,81.70
2017-11-10T01:37:20.605Z,81.20
2017-11-10T01:39:54.152Z,80.90
2017-11-10T01:42:28.051Z,81.10
2017-11-10T01:45:01.830Z,81.00
2017-11-10T01:47:35.668Z,81.10
2017-11-10T01:50:10.654Z,81.10
2017-11-10T01:52:45.284Z,81.20
2017-11-10T01:55:19.709Z,81.20
2017-11-10T01:57:54.129Z,81.50
2017-11-10T02:00:28.523Z,80.90
2017-11-10T02:03:03.411Z,80.90
2017-11-10T02:05:37.074Z,80.90
2017-11-10T02:08:10.909Z,81.00
2017-11-10T02:10:46.118Z,80.80
2017-11-10T02:13:20.378Z,81.00
2017-11-10T02:15:54.022Z,80.90
2017-11-10T02:18:27.817Z,80.90
2017-11-10T02:21:01.538Z,81.20
2017-11-10T02:23:36.032Z,81.80
2017-11-10T02:26:11.299Z,81.60
2017-11-10T02:28:46.567Z,81.10
2017-11-10T02:31:20.753Z,81.20
2017-11-10T02:33:54.782Z,81.20
2017-11-10T02:39:05.336Z,81.50
2017-11-10T02:41:41.606Z,81.60
2017-11-10T02:44:16.662Z,81.70
2017-11-10T02:46:51.973Z,81.70
2017-11-10T02:49:26.539Z,82.00
2017-11-10T02:52:01.189Z,82.80
2017-11-10T02:54:36.078Z,82.10
2017-11-10T02:57:10.467Z,82.10
2017-11-10T02:59:45.009Z,82.00
2017-11-10T03:02:19.027Z,82.10
2017-11-10T03:04:53.423Z,82.10
2017-11-10T03:07:27.538Z,82.10
2017-11-10T03:10:02.302Z,82.00
2017-11-10T03:12:36.795Z,82.10
2017-11-10T03:15:12.347Z,82.10
2017-11-10T03:17:46.063Z,82.30
2017-11-10T03:20:19.870Z,82.20
2017-11-10T03:22:55.168Z,82.90
2017-11-10T03:25:29.087Z,82.40
2017-11-10T03:28:03.186Z,82.30
2017-11-10T03:30:37.366Z,82.50
2017-11-10T03:33:11.178Z,82.40
2017-11-10T03:35:46.451Z,82.90
2017-11-10T03:38:21.485Z,83.20
2017-11-10T03:40:56.695Z,83.80
2017-11-10T03:43:31.071Z,83.80
2017-11-10T03:46:05.566Z,84.70
2017-11-10T03:48:41.028Z,86.20
2017-11-10T03:51:16.079Z,86.50
2017-11-10T03:53:50.686Z,86.50
2017-11-10T03:56:24.284Z,87.00
2017-11-10T03:58:57.989Z,86.60
2017-11-10T04:01:32.561Z,86.90
2017-11-10T04:04:06.958Z,86.20
2017-11-10T04:06:41.775Z,87.00
2017-11-10T04:09:17.049Z,86.50
2017-11-10T04:11:51.095Z,86.70
2017-11-10T04:14:26.333Z,87.40
2017-11-10T04:17:01.390Z,87.10
2017-11-10T04:19:35.487Z,87.10
2017-11-10T04:22:10.830Z,87.50
2017-11-10T04:24:45.622Z,86.50
2017-11-10T04:29:56.762Z,86.90
2017-11-10T04:32:32.150Z,85.80
2017-11-10T04:35:06.699Z,86.10
2017-11-10T04:37:42.071Z,85.90
2017-11-10T04:42:52.144Z,86.10
2017-11-10T04:45:26.130Z,85.60
2017-11-10T04:48:00.303Z,85.40
2017-11-10T04:50:34.654Z,85.60
2017-11-10T04:53:10.126Z,86.70
2017-11-10T04:55:44.960Z,86.00
2017-11-10T04:58:21.115Z,87.40
2017-11-10T05:00:55.574Z,86.70
2017-11-10T05:03:30.712Z,87.00
2017-11-10T05:06:04.853Z,87.10
2017-11-10T05:08:39.402Z,87.80
2017-11-10T05:11:13.911Z,87.10
2017-11-10T05:13:48.742Z,87.00
2017-11-10T05:16:23.692Z,86.70
2017-11-10T05:18:57.971Z,86.90
2017-11-10T05:21:31.916Z,86.90
2017-11-10T05:24:06.479Z,87.60
2017-11-10T05:26:40.675Z,86.40
2017-11-10T05:29:15.342Z,86.80
2017-11-10T05:31:49.597Z,86.80
2017-11-10T05:34:23.245Z,86.60
2017-11-10T05:36:57.202Z,86.80
2017-11-10T05:39:31.313Z,86.60
2017-11-10T05:42:06.149Z,86.20
2017-11-10T05:44:39.768Z,86.10
2017-11-10T05:47:13.807Z,86.00
2017-11-10T05:49:48.945Z,86.10
2017-11-10T05:52:23.442Z,85.90
2017-11-10T05:54:58.605Z,85.60
2017-11-10T05:57:32.866Z,85.70
2017-11-10T06:00:07.347Z,86.20
2017-11-10T06:02:42.522Z,85.70
2017-11-10T06:05:16.784Z,85.50
2017-11-10T06:07:51.542Z,86.00
2017-11-10T06:10:25.799Z,85.30
2017-11-10T06:13:00.820Z,85.80
2017-11-10T06:15:35.679Z,85.50
2017-11-10T06:18:10.956Z,85.60
2017-11-10T06:20:45.279Z,85.70
2017-11-10T06:23:20.093Z,85.60
2017-11-10T06:25:55.323Z,85.70
2017-11-10T06:28:30.126Z,85.70
2017-11-10T06:31:04.131Z,85.60
2017-11-10T06:33:37.829Z,85.60
2017-11-10T06:36:12.348Z,85.30
2017-11-10T06:38:47.599Z,85.40
2017-11-10T06:41:21.702Z,85.30
2017-11-10T06:46:31.834Z,84.90
2017-11-10T06:49:06.805Z,85.00
2017-11-10T06:51:41.128Z,85.10
2017-11-10T06:54:15.544Z,85.10
2017-11-10T06:56:50.027Z,85.10
2017-11-10T06:59:24.450Z,85.30
2017-11-10T07:01:58.882Z,86.10
2017-11-10T07:04:33.742Z,86.40
2017-11-10T07:07:08.466Z,85.50
2017-11-10T07:09:43.115Z,85.10
2017-11-10T07:12:18.194Z,85.60
2017-11-10T07:14:52.737Z,84.90
2017-11-10T07:17:27.071Z,84.80
2017-11-10T07:20:01.167Z,84.90
2017-11-10T07:22:35.796Z,84.80
2017-11-10T07:25:10.314Z,84.90
2017-11-10T07:27:44.589Z,84.90
2017-11-10T07:30:18.444Z,84.90
2017-11-10T07:32:53.896Z,85.50
2017-11-10T07:35:27.872Z,85.60
2017-11-10T07:38:02.921Z,85.50
2017-11-10T07:40:37.753Z,85.00
2017-11-10T07:43:12.653Z,85.00
2017-11-10T07:45:46.903Z,84.50
2017-11-10T07:48:21.933Z,84.60
2017-11-10T07:50:55.835Z,84.40
2017-11-10T07:53:29.563Z,84.30
2017-11-10T07:56:03.912Z,84.70
2017-11-10T07:58:37.990Z,84.10
2017-11-10T08:01:12.576Z,83.00
2017-11-10T08:03:46.714Z,82.80
2017-11-10T08:06:21.372Z,82.60
2017-11-10T08:08:55.870Z,82.40
2017-11-10T08:14:05.945Z,82.70
2017-11-10T08:16:41.038Z,82.60
2017-11-10T08:19:15.697Z,85.20
2017-11-10T08:21:50.006Z,82.60
2017-11-10T08:24:24.478Z,82.80
2017-11-10T08:26:58.743Z,82.70
2017-11-10T08:29:33.025Z,82.60
2017-11-10T08:32:06.647Z,82.70
2017-11-10T08:34:40.573Z,82.50
2017-11-10T08:37:15.706Z,82.80
2017-11-10T08:39:50.843Z,82.70
2017-11-10T08:42:24.930Z,82.60
2017-11-10T08:44:59.614Z,82.40
2017-11-10T08:47:33.962Z,82.70
2017-11-10T08:50:07.997Z,82.70
2017-11-10T08:52:42.648Z,82.90
2017-11-10T08:55:17.727Z,84.10
2017-11-10T08:57:52.319Z,83.60
2017-11-10T09:00:26.945Z,83.40
2017-11-10T09:03:02.148Z,83.50
2017-11-10T09:05:36.167Z,82.90
2017-11-10T09:08:09.979Z,83.00
2017-11-10T09:10:44.451Z,82.40
2017-11-10T09:13:18.393Z,82.30
2017-11-10T09:15:53.438Z,82.50
2017-11-10T09:18:27.620Z,82.40
2017-11-10T09:23:37.784Z,81.70
2017-11-10T09:26:13.192Z,81.70
2017-11-10T09:28:53.510Z,81.90
2017-11-10T09:31:34.487Z,81.40
2017-11-10T09:34:10.337Z,81.80
2017-11-10T09:40:15.519Z,81.60
2017-11-10T09:42:56.288Z,81.80
2017-11-10T09:45:47.256Z,81.90
2017-11-10T09:48:27.870Z,82.00
2017-11-10T09:51:07.126Z,81.50
2017-11-10T09:53:42.939Z,81.30
2017-11-10T09:56:22.990Z,81.50
2017-11-10T09:59:02.304Z,81.20
2017-11-10T10:04:32.790Z,81.20
2017-11-10T10:10:11.591Z,79.60
2017-11-10T10:13:04.703Z,79.50
2017-11-10T10:15:44.871Z,79.60
2017-11-10T10:18:36.999Z,79.30
2017-11-10T10:21:14.378Z,79.00
2017-11-10T10:23:48.963Z,78.90
2017-11-10T10:26:22.865Z,79.00
2017-11-10T10:28:57.569Z,79.50
2017-11-10T10:31:31.535Z,78.90
2017-11-10T10:34:05.597Z,78.60
2017-11-10T10:36:40.255Z,78.30
2017-11-10T10:39:13.927Z,77.90
2017-11-10T10:41:47.782Z,77.10
2017-11-10T10:44:22.383Z,77.40
2017-11-10T10:46:57.238Z,77.30
2017-11-10T10:49:32.463Z,78.00
2017-11-10T10:52:07.315Z,77.90
2017-11-10T10:54:42.139Z,77.90
2017-11-10T10:57:17.012Z,77.20
2017-11-10T10:59:51.549Z,77.20
2017-11-10T11:02:26.084Z,77.30
2017-11-10T11:05:00.129Z,77.50
2017-11-10T11:07:33.814Z,77.30
2017-11-10T11:10:08.054Z,77.60
2017-11-10T11:12:42.557Z,77.10
2017-11-10T11:15:16.353Z,77.30
2017-11-10T11:17:50.071Z,77.40
2017-11-10T11:20:24.779Z,77.40
2017-11-10T11:22:59.134Z,77.40
2017-11-10T11:25:33.682Z,77.80
2017-11-10T11:28:08.160Z,77.30
2017-11-10T11:30:42.694Z,77.50
2017-11-10T11:33:17.600Z,77.40
2017-11-10T11:35:51.969Z,77.40
2017-11-10T11:38:26.847Z,77.80
2017-11-10T11:41:01.287Z,78.10
2017-11-10T11:43:36.447Z,78.60
2017-11-10T11:46:10.641Z,78.00
2017-11-10T11:48:44.362Z,78.50
2017-11-10T11:51:19.099Z,78.90
2017-11-10T11:53:53.475Z,79.60
2017-11-10T11:56:27.605Z,79.90
2017-11-10T11:59:02.148Z,80.50
2017-11-10T12:01:36.341Z,80.00
2017-11-10T12:04:10.889Z,79.80
2017-11-10T12:06:46.827Z,80.30
2017-11-10T12:09:21.412Z,79.60
2017-11-10T12:11:57.135Z,80.10
2017-11-10T12:14:32.395Z,80.30
2017-11-10T12:17:06.915Z,79.90
2017-11-10T12:19:41.041Z,80.10
2017-11-10T12:22:16.010Z,80.00
2017-11-10T12:24:51.197Z,80.30
2017-11-10T12:27:25.018Z,80.30
2017-11-10T12:30:01.320Z,80.50
2017-11-10T12:32:35.490Z,80.40
2017-11-10T12:35:10.116Z,80.60
2017-11-10T12:37:44.672Z,81.80
2017-11-10T12:40:19.163Z,82.40
2017-11-10T12:42:53.543Z,81.80
2017-11-10T12:45:28.356Z,82.20
2017-11-10T12:48:02.964Z,82.80
2017-11-10T12:50:37.555Z,82.80
2017-11-10T12:53:11.765Z,82.40
2017-11-10T12:55:45.574Z,82.90
2017-11-10T12:58:20.309Z,83.50
2017-11-10T13:00:54.314Z,83.50
2017-11-10T13:03:28.157Z,83.90
2017-11-10T13:06:01.849Z,83.70
2017-11-10T13:08:35.777Z,83.80
2017-11-10T13:11:09.552Z,84.80
2017-11-10T13:13:43.718Z,84.80
2017-11-10T13:16:19.384Z,85.40
2017-11-10T13:18:53.850Z,86.00
2017-11-10T13:21:27.925Z,86.30
2017-11-10T13:24:02.400Z,87.10
2017-11-10T13:26:37.114Z,86.80
2017-11-10T13:29:11.426Z,86.60
2017-11-10T13:31:46.823Z,88.00
2017-11-10T13:34:21.327Z,86.70
2017-11-10T13:36:55.528Z,87.10
2017-11-10T13:39:30.631Z,88.10
2017-11-10T13:42:05.120Z,87.60
2017-11-10T13:44:39.044Z,88.00
2017-11-10T13:47:13.652Z,88.80
2017-11-10T13:49:48.638Z,88.10
2017-11-10T13:52:23.759Z,88.20
2017-11-10T13:54:58.142Z,87.50
2017-11-10T13:57:32.461Z,87.60
2017-11-10T14:00:06.391Z,87.60
2017-11-10T14:02:40.925Z,87.80
2017-11-10T14:05:15.522Z,88.50
2017-11-10T14:07:51.956Z,87.60
2017-11-10T14:10:27.514Z,87.10
2017-11-10T14:13:03.195Z,87.50
2017-11-10T14:15:38.227Z,86.10
2017-11-10T14:18:12.778Z,86.50
2017-11-10T14:20:47.878Z,85.80
2017-11-10T14:23:22.232Z,85.90
2017-11-10T14:25:56.499Z,85.70
2017-11-10T14:28:32.615Z,87.30
2017-11-10T14:31:07.566Z,85.60
2017-11-10T14:33:41.794Z,85.70
2017-11-10T14:36:15.929Z,85.40
2017-11-10T14:38:50.272Z,85.20
2017-11-10T14:41:24.152Z,85.30
2017-11-10T14:43:58.403Z,85.20
2017-11-10T14:46:34.012Z,86.50
2017-11-10T14:49:09.376Z,83.00
2017-11-10T14:51:44.178Z,82.70
2017-11-10T14:54:19.218Z,84.50
2017-11-10T14:56:54.034Z,83.00
2017-11-10T14:59:28.901Z,85.60
2017-11-10T15:04:39.457Z,83.50
2017-11-10T15:07:13.635Z,83.30
2017-11-10T15:09:47.329Z,82.50
2017-11-10T15:12:21.415Z,82.00
2017-11-10T15:14:55.987Z,81.90
2017-11-10T15:17:30.899Z,80.60
2017-11-10T15:20:05.686Z,80.00
2017-11-10T15:22:40.742Z,80.90
2017-11-10T15:25:14.832Z,79.00
2017-11-10T15:27:48.738Z,79.50
2017-11-10T15:30:24.885Z,79.50
2017-11-10T15:32:59.143Z,79.60
2017-11-10T15:35:34.343Z,79.10
2017-11-10T15:38:09.005Z,78.70
2017-11-10T15:40:43.679Z,79.20
2017-11-10T15:43:19.943Z,78.10
2017-11-10T15:45:54.497Z,79.10
2017-11-10T15:48:28.703Z,79.00
2017-11-10T15:51:03.806Z,79.40
2017-11-10T15:53:38.204Z,78.50
2017-11-10T15:56:11.943Z,78.30
2017-11-10T15:58:47.688Z,78.40
2017-11-10T16:01:22.512Z,78.80
2017-11-10T16:03:57.553Z,78.60
2017-11-10T16:06:31.470Z,78.40
2017-11-10T16:09:06.295Z,79.10
2017-11-10T16:11:40.199Z,79.10
2017-11-10T16:14:15.039Z,79.50
2017-11-10T16:16:49.954Z,79.20
2017-11-10T16:19:23.594Z,79.40
2017-11-10T16:21:57.279Z,79.20
2017-11-10T16:24:32.361Z,79.70
2017-11-10T16:27:06.790Z,79.50
2017-11-10T16:29:42.132Z,80.00
2017-11-10T16:32:16.306Z,79.90
2017-11-10T16:34:51.412Z,80.00
2017-11-10T16:37:25.602Z,80.40
2017-11-10T16:40:00.167Z,80.40
2017-11-10T16:42:34.592Z,80.50
2017-11-10T16:45:09.116Z,80.50
2017-11-10T16:47:43.418Z,80.90
2017-11-10T16:50:18.595Z,81.40
2017-11-10T16:52:53.602Z,81.10
2017-11-10T16:55:28.319Z,81.30
2017-11-10T16:58:02.647Z,81.50
2017-11-10T17:00:36.556Z,81.70
2017-11-10T17:03:11.423Z,82.60
2017-11-10T17:05:45.634Z,81.90
2017-11-10T17:08:20.063Z,82.00
2017-11-10T17:10:54.222Z,81.90
2017-11-10T17:13:30.680Z,82.80
2017-11-10T17:16:05.191Z,82.20
2017-11-10T17:18:39.712Z,82.30
2017-11-10T17:21:14.177Z,82.60
2017-11-10T17:23:48.956Z,85.10
2017-11-10T17:26:23.525Z,83.30
2017-11-10T17:28:58.150Z,83.80
2017-11-10T17:31:31.911Z,83.30
2017-11-10T17:34:06.675Z,82.30
2017-11-10T17:36:41.654Z,84.40
2017-11-10T17:39:16.726Z,82.60
2017-11-10T17:41:51.946Z,83.90
2017-11-10T17:44:26.163Z,83.80
2017-11-10T17:49:39.806Z,85.10
2017-11-10T17:52:14.148Z,83.80
2017-11-10T17:54:49.353Z,83.00
2017-11-10T17:57:24.859Z,83.00
2017-11-10T17:59:59.154Z,82.30
2017-11-10T18:02:33.364Z,82.60
2017-11-10T18:05:08.315Z,82.80
2017-11-10T18:07:42.805Z,82.50
2017-11-10T18:10:17.257Z,82.10
2017-11-10T18:15:27.702Z,81.70
2017-11-10T18:18:02.494Z,79.80
2017-11-10T18:20:37.450Z,78.30
2017-11-10T18:23:12.386Z,80.90
2017-11-10T18:25:46.740Z,79.70
2017-11-10T18:28:21.067Z,80.30
2017-11-10T18:30:56.261Z,82.50
2017-11-10T18:33:30.755Z,82.40
2017-11-10T18:36:04.739Z,82.60
2017-11-10T18:38:38.744Z,82.30
2017-11-10T18:41:13.064Z,84.10
2017-11-10T18:43:47.654Z,84.90
2017-11-10T18:46:21.445Z,84.30
2017-11-10T18:48:56.950Z,82.80
2017-11-10T18:51:31.443Z,82.70
2017-11-10T18:54:08.444Z,81.20
2017-11-10T18:56:43.056Z,80.70
2017-11-10T18:59:16.894Z,80.80
2017-11-10T19:01:58.048Z,79.60
2017-11-10T19:04:32.355Z,80.30
2017-11-10T19:07:06.063Z,80.60
2017-11-10T19:09:40.015Z,79.30
2017-11-10T19:12:13.655Z,79.60
2017-11-10T19:14:51.004Z,81.60
2017-11-10T19:17:25.191Z,79.80
2017-11-10T19:20:01.991Z,79.60
2017-11-10T19:22:36.740Z,80.10
2017-11-10T19:25:10.934Z,79.90
2017-11-10T19:27:45.496Z,78.90
2017-11-10T19:30:19.569Z,78.90
2017-11-10T19:32:53.282Z,79.10
2017-11-10T19:35:27.866Z,77.10
2017-11-10T19:38:01.695Z,77.10
2017-11-10T19:40:35.381Z,77.60
2017-11-10T19:43:09.253Z,76.90
2017-11-10T19:45:42.917Z,76.50
2017-11-10T19:48:16.603Z,76.40
2017-11-10T19:50:50.385Z,75.80
2017-11-10T19:53:24.279Z,77.00
2017-11-10T19:55:58.833Z,76.80
2017-11-10T19:58:32.740Z,76.30
2017-11-10T20:01:07.181Z,75.60
2017-11-10T20:03:41.282Z,75.40
2017-11-10T20:06:15.801Z,75.70
2017-11-10T20:08:50.025Z,75.60
2017-11-10T20:11:23.809Z,74.50
2017-11-10T20:13:58.151Z,75.00
2017-11-10T20:16:33.349Z,76.10
2017-11-10T20:19:07.571Z,76.10
2017-11-10T20:21:41.521Z,75.80
2017-11-10T20:24:15.763Z,75.70
2017-11-10T20:26:50.060Z,76.10
2017-11-10T20:29:23.975Z,75.60
2017-11-10T20:31:58.774Z,75.40
2017-11-10T20:34:33.276Z,75.70
2017-11-10T20:37:07.197Z,76.10
2017-11-10T20:39:40.988Z,76.40
2017-11-10T20:42:14.955Z,76.80
2017-11-10T20:44:49.498Z,77.10
2017-11-10T20:47:23.425Z,77.00
2017-11-10T20:49:57.237Z,77.00
2017-11-10T20:52:30.866Z,77.30
2017-11-10T20:55:05.252Z,77.20
2017-11-10T20:57:39.606Z,76.80
2017-11-10T21:00:13.376Z,77.20
2017-11-10T21:02:47.197Z,77.40
2017-11-10T21:05:20.887Z,77.20
2017-11-10T21:07:54.796Z,77.80
2017-11-10T21:10:28.382Z,77.60
2017-11-10T21:13:02.081Z,78.30
2017-11-10T21:15:36.095Z,77.90
2017-11-10T21:18:10.615Z,78.50
2017-11-10T21:20:44.320Z,78.10
2017-11-10T21:23:18.861Z,78.60
2017-11-10T21:25:53.663Z,77.90
2017-11-10T21:28:28.009Z,78.00
2017-11-10T21:31:02.638Z,78.00
2017-11-10T21:33:36.916Z,77.70
2017-11-10T21:36:11.033Z,76.80
2017-11-10T21:38:45.575Z,76.70
2017-11-10T21:41:20.894Z,77.10
2017-11-10T21:43:55.118Z,76.50
2017-11-10T21:46:29.363Z,76.00
2017-11-10T21:49:04.675Z,75.90
2017-11-10T21:51:39.396Z,76.50
2017-11-10T21:54:13.705Z,76.30
2017-11-10T21:56:48.566Z,76.40
2017-11-10T21:59:23.662Z,77.50
2017-11-10T22:01:59.062Z,76.40
2017-11-10T22:04:32.834Z,77.60
2017-11-10T22:07:07.474Z,76.50
2017-11-10T22:09:43.496Z,76.60
2017-11-10T22:12:19.373Z,76.40
2017-11-10T22:14:54.012Z,76.30
2017-11-10T22:17:29.785Z,76.50
2017-11-10T22:20:05.815Z,76.20
2017-11-10T22:22:39.763Z,76.60
2017-11-10T22:25:13.871Z,76.60
2017-11-10T22:27:49.581Z,76.20
2017-11-10T22:30:24.925Z,76.40
2017-11-10T22:32:59.348Z,76.50
2017-11-10T22:35:33.952Z,76.60
2017-11-10T22:38:08.898Z,76.80
2017-11-10T22:40:44.704Z,77.10
2017-11-10T22:43:19.867Z,77.20
2017-11-10T22:45:54.434Z,76.60
2017-11-10T22:48:28.818Z,77.00
2017-11-10T22:51:03.565Z,76.60
2017-11-10T22:53:37.844Z,76.40
2017-11-10T22:56:12.610Z,76.70
2017-11-10T22:58:46.377Z,76.90
2017-11-10T23:01:21.581Z,77.00
2017-11-10T23:03:55.270Z,76.80
2017-11-10T23:06:29.637Z,77.60
2017-11-10T23:09:04.594Z,77.40
2017-11-10T23:11:40.181Z,77.10
2017-11-10T23:14:15.073Z,77.30
2017-11-10T23:16:49.518Z,76.80
2017-11-10T23:19:24.010Z,76.90
2017-11-10T23:21:58.240Z,77.20
2017-11-10T23:24:32.914Z,77.10
2017-11-10T23:27:07.835Z,77.10
2017-11-10T23:29:42.476Z,77.20
2017-11-10T23:32:16.617Z,76.80
2017-11-10T23:34:50.909Z,77.10
2017-11-10T23:37:25.458Z,76.80
2017-11-10T23:40:00.193Z,76.60
2017-11-10T23:42:34.010Z,76.50
2017-11-10T23:45:08.161Z,75.90
2017-11-10T23:47:43.431Z,75.70
2017-11-10T23:50:17.535Z,75.60
2017-11-10T23:52:51.404Z,75.40
2017-11-10T23:55:26.148Z,75.90
2017-11-10T23:58:00.350Z,75.60
